Weather at Radnja Airstrip

Public forecast

Using degrees Celsius for public forecast. Weather courtesy of forecast.io.

Closest aviation weather report (METAR) to Radnja Airstrip

Closest report is Skopje International Airport, 48.9 nm (90.5 km) NNW. Retrieved 2022/01/17 15:00 UTC (18 minutes ago):

LWSK 171500Z 00000KT 7000 FEW050 01/M02 Q1021 NOSIG

Closest aviation forecast (TAF) to Radnja Airstrip

Closest forecast is Skopje International Airport, 48.9 nm (90.5 km) NNW. Retrieved 2022/01/17 15:30 UTC (0 seconds ago):

TAF LWSK 171430Z 1715/1815 VRB02KT 9999 SCT050 TEMPO 1721/1803 -SN SCT035 OVC045 BECMG 1717/1719 32010KT BECMG 1803/1805 36015G30KT